createdAt,value
2018-10-05T00:02:24.345Z,74.19
2018-10-05T00:04:52.076Z,75.22
2018-10-05T00:07:19.817Z,75.15
2018-10-05T00:09:47.542Z,74.81
2018-10-05T00:12:15.254Z,75.48
2018-10-05T00:14:42.982Z,75.83
2018-10-05T00:17:11.044Z,76.38
2018-10-05T00:19:38.756Z,76.46
2018-10-05T00:22:06.637Z,76.81
2018-10-05T00:24:34.373Z,77.15
2018-10-05T00:27:02.088Z,77.15
2018-10-05T00:29:29.802Z,77.21
2018-10-05T00:31:57.508Z,76.54
2018-10-05T00:34:25.213Z,77.21
2018-10-05T00:36:52.925Z,76.36
2018-10-05T00:39:20.648Z,75.62
2018-10-05T00:41:48.353Z,74.72
2018-10-05T00:44:16.067Z,75.81
2018-10-05T00:46:43.868Z,76.61
2018-10-05T00:49:11.591Z,76.98
2018-10-05T00:51:39.308Z,78.08
2018-10-05T00:54:07.041Z,78.50
2018-10-05T00:56:34.763Z,78.33
2018-10-05T00:59:02.499Z,78.62
2018-10-05T01:01:30.236Z,76.20
2018-10-05T01:03:57.965Z,75.99
2018-10-05T01:06:25.681Z,76.23
2018-10-05T01:08:53.385Z,77.46
2018-10-05T01:11:21.159Z,77.73
2018-10-05T01:13:48.855Z,78.67
2018-10-05T01:16:16.573Z,78.89
2018-10-05T01:18:44.277Z,79.47
2018-10-05T01:21:11.997Z,79.88
2018-10-05T01:23:39.726Z,79.92
2018-10-05T01:26:07.429Z,79.81
2018-10-05T01:28:35.145Z,79.36
2018-10-05T01:31:02.878Z,79.58
2018-10-05T01:33:30.600Z,79.82
2018-10-05T01:35:58.328Z,80.50
2018-10-05T01:38:26.051Z,79.46
2018-10-05T01:40:53.772Z,78.34
2018-10-05T01:43:21.550Z,78.35
2018-10-05T01:45:49.264Z,78.00
2018-10-05T01:48:16.977Z,78.63
2018-10-05T01:50:44.682Z,78.83
2018-10-05T01:53:12.406Z,77.91
2018-10-05T01:55:40.124Z,78.73
2018-10-05T01:58:07.851Z,78.42
2018-10-05T02:00:35.564Z,78.78
2018-10-05T02:03:03.262Z,78.63
2018-10-05T02:05:31.389Z,79.26
2018-10-05T02:07:59.089Z,79.68
2018-10-05T02:10:26.793Z,79.49
2018-10-05T02:12:54.498Z,78.48
2018-10-05T02:15:22.189Z,77.36
2018-10-05T02:17:49.907Z,77.54
2018-10-05T02:20:17.644Z,77.24
2018-10-05T02:22:45.372Z,76.71
2018-10-05T02:25:13.080Z,76.18
2018-10-05T02:27:40.895Z,76.54
2018-10-05T02:30:08.552Z,76.80
2018-10-05T02:32:36.292Z,77.99
2018-10-05T02:35:04.163Z,77.97
2018-10-05T02:37:31.869Z,76.91
2018-10-05T02:39:59.557Z,77.77
2018-10-05T02:42:27.265Z,77.49
2018-10-05T02:44:55.004Z,77.65
2018-10-05T02:47:22.729Z,78.05
2018-10-05T02:49:50.502Z,78.06
2018-10-05T02:52:18.206Z,79.61
2018-10-05T02:54:45.913Z,79.08
2018-10-05T02:57:13.635Z,78.97
2018-10-05T02:59:41.369Z,79.23
2018-10-05T03:02:20.257Z,77.92
2018-10-05T03:04:47.983Z,77.26
2018-10-05T03:07:15.678Z,76.40
2018-10-05T03:09:43.378Z,76.82
2018-10-05T03:12:11.092Z,77.50
2018-10-05T03:14:38.820Z,77.19
2018-10-05T03:17:06.544Z,77.02
2018-10-05T03:19:34.312Z,76.18
2018-10-05T03:22:02.037Z,76.75
2018-10-05T03:24:29.750Z,75.09
2018-10-05T03:26:57.454Z,76.69
2018-10-05T03:29:25.259Z,77.46
2018-10-05T03:31:53.004Z,78.45
2018-10-05T03:34:20.732Z,78.58
2018-10-05T03:36:48.438Z,78.28
2018-10-05T03:39:16.142Z,79.09
2018-10-05T03:41:43.853Z,79.11
2018-10-05T03:44:11.575Z,78.59
2018-10-05T03:46:39.304Z,79.00
2018-10-05T03:49:07.015Z,78.67
2018-10-05T03:51:34.717Z,79.31
2018-10-05T03:54:02.526Z,79.79
2018-10-05T03:56:30.239Z,79.73
2018-10-05T03:58:58.007Z,80.19
2018-10-05T04:01:25.721Z,79.95
2018-10-05T04:03:53.418Z,81.53
2018-10-05T04:06:21.148Z,80.20
2018-10-05T04:08:48.857Z,78.96
2018-10-05T04:11:16.877Z,79.12
2018-10-05T04:13:44.582Z,78.35
2018-10-05T04:16:12.297Z,78.64
2018-10-05T04:18:40.020Z,78.81
2018-10-05T04:21:07.767Z,78.19
2018-10-05T04:23:35.478Z,79.75
2018-10-05T04:26:03.197Z,79.45
2018-10-05T04:28:30.988Z,80.21
2018-10-05T04:30:58.854Z,80.56
2018-10-05T04:33:26.560Z,79.70
2018-10-05T04:35:54.292Z,79.56
2018-10-05T04:38:22.016Z,79.83
2018-10-05T04:40:49.727Z,79.52
2018-10-05T04:43:17.440Z,80.73
2018-10-05T04:45:45.176Z,80.51
2018-10-05T04:48:12.876Z,79.96
2018-10-05T04:50:40.597Z,79.36
2018-10-05T04:53:08.308Z,78.12
2018-10-05T04:55:36.101Z,78.75
2018-10-05T04:58:03.918Z,78.56
2018-10-05T05:00:31.615Z,77.57
2018-10-05T05:02:59.412Z,77.10
2018-10-05T05:05:27.208Z,77.95
2018-10-05T05:07:54.964Z,78.47
2018-10-05T05:10:22.720Z,79.09
2018-10-05T05:12:50.443Z,79.46
2018-10-05T05:15:18.211Z,79.04
2018-10-05T05:17:45.956Z,78.49
2018-10-05T05:20:13.682Z,79.43
2018-10-05T05:22:41.451Z,77.46
2018-10-05T05:25:09.166Z,77.75
2018-10-05T05:27:36.993Z,77.96
2018-10-05T05:30:04.965Z,77.26
2018-10-05T05:32:32.676Z,76.66
2018-10-05T05:35:00.400Z,76.04
2018-10-05T05:37:28.117Z,76.71
2018-10-05T05:39:55.813Z,76.28
2018-10-05T05:42:23.555Z,77.04
2018-10-05T05:44:51.296Z,76.52
2018-10-05T05:47:19.053Z,75.18
2018-10-05T05:49:46.770Z,75.35
2018-10-05T05:52:14.513Z,75.19
2018-10-05T05:54:42.263Z,74.91
2018-10-05T05:57:09.996Z,75.77
2018-10-05T05:59:37.738Z,74.07
2018-10-05T06:02:05.526Z,74.35
2018-10-05T06:04:33.242Z,75.75
2018-10-05T06:07:00.991Z,74.91
2018-10-05T06:09:28.712Z,75.37
2018-10-05T06:11:56.432Z,74.05
2018-10-05T06:14:24.160Z,73.87
2018-10-05T06:16:51.904Z,74.75
2018-10-05T06:19:19.669Z,75.24
2018-10-05T06:21:47.570Z,72.94
2018-10-05T06:24:15.195Z,72.64
2018-10-05T06:26:42.919Z,73.14
2018-10-05T06:29:10.643Z,75.65
2018-10-05T06:31:38.370Z,70.86
2018-10-05T06:34:06.472Z,70.78
2018-10-05T06:36:34.212Z,70.47
2018-10-05T06:39:02.105Z,70.28
2018-10-05T06:41:29.856Z,70.59
2018-10-05T06:43:57.578Z,72.03
2018-10-05T06:46:25.310Z,70.76
2018-10-05T06:48:53.027Z,68.91
2018-10-05T06:51:20.765Z,66.86
2018-10-05T06:53:48.492Z,68.31
2018-10-05T06:56:16.230Z,65.37
2018-10-05T06:58:44.055Z,65.87
2018-10-05T07:01:11.774Z,65.66
2018-10-05T07:03:39.532Z,64.37
2018-10-05T07:06:07.282Z,65.46
2018-10-05T07:08:35.016Z,62.35
2018-10-05T07:11:02.919Z,62.54
2018-10-05T07:13:30.675Z,63.13
2018-10-05T07:15:58.480Z,59.91
2018-10-05T07:18:26.191Z,61.35
2018-10-05T07:20:53.920Z,61.39
2018-10-05T07:23:21.645Z,60.53
2018-10-05T07:25:49.360Z,60.33
2018-10-05T07:28:17.154Z,61.48
2018-10-05T07:30:44.839Z,61.06
2018-10-05T07:33:12.568Z,61.55
2018-10-05T07:35:40.286Z,58.76
2018-10-05T07:38:07.997Z,59.29
2018-10-05T07:40:35.743Z,59.14
2018-10-05T07:43:03.493Z,58.74
2018-10-05T07:45:31.229Z,61.78
2018-10-05T07:47:58.949Z,59.83
2018-10-05T07:50:26.706Z,60.10
2018-10-05T07:52:54.418Z,56.65
2018-10-05T07:55:22.187Z,64.10
2018-10-05T07:57:49.959Z,58.31
2018-10-05T08:00:17.723Z,57.09
2018-10-05T08:02:45.460Z,55.77
2018-10-05T08:05:13.203Z,56.12
2018-10-05T08:07:40.928Z,55.69
2018-10-05T08:10:08.756Z,56.21
2018-10-05T08:12:36.505Z,54.90
2018-10-05T08:15:05.018Z,56.90
2018-10-05T08:17:32.811Z,61.31
2018-10-05T08:20:00.585Z,57.68
2018-10-05T08:22:28.312Z,58.01
2018-10-05T08:24:56.052Z,56.14
2018-10-05T08:27:23.785Z,56.15
2018-10-05T08:29:51.505Z,57.09
2018-10-05T08:32:19.269Z,56.44
2018-10-05T08:34:47.050Z,55.45
2018-10-05T08:37:14.817Z,53.04
2018-10-05T08:39:42.616Z,53.44
2018-10-05T08:42:10.317Z,57.09
2018-10-05T08:44:38.042Z,56.26
2018-10-05T08:47:05.788Z,52.57
2018-10-05T08:49:33.515Z,53.99
2018-10-05T08:52:01.381Z,54.00
2018-10-05T08:54:28.978Z,53.72
2018-10-05T08:56:56.710Z,53.19
2018-10-05T08:59:27.701Z,52.43
2018-10-05T09:01:55.426Z,49.54
2018-10-05T09:04:23.149Z,49.28
2018-10-05T09:06:50.903Z,48.47
2018-10-05T09:09:18.664Z,48.51
2018-10-05T09:11:47.276Z,49.22
2018-10-05T09:14:15.048Z,50.21
2018-10-05T09:16:42.804Z,49.41
2018-10-05T09:19:10.528Z,49.00
2018-10-05T09:21:38.250Z,48.02
2018-10-05T09:24:06.071Z,48.46
2018-10-05T09:26:33.816Z,47.71
2018-10-05T09:29:01.542Z,50.16
2018-10-05T09:31:29.275Z,49.52
2018-10-05T09:33:57.050Z,48.86
2018-10-05T09:36:24.826Z,47.61
2018-10-05T09:38:52.591Z,48.11
2018-10-05T09:41:20.351Z,47.49
2018-10-05T09:43:48.088Z,46.82
2018-10-05T09:46:15.989Z,45.80
2018-10-05T09:48:43.706Z,45.98
2018-10-05T09:51:11.457Z,46.03
2018-10-05T09:53:39.191Z,45.49
2018-10-05T09:56:06.948Z,45.43
2018-10-05T09:58:34.669Z,45.50
2018-10-05T10:01:07.803Z,45.36
2018-10-05T10:03:36.526Z,44.17
2018-10-05T10:06:05.161Z,43.13
2018-10-05T10:08:32.917Z,43.45
2018-10-05T10:11:00.728Z,41.60
2018-10-05T10:13:28.534Z,43.77
2018-10-05T10:15:56.274Z,42.87
2018-10-05T10:18:24.010Z,43.30
2018-10-05T10:20:51.734Z,45.00
2018-10-05T10:23:19.484Z,43.33
2018-10-05T10:25:47.255Z,42.49
2018-10-05T10:28:15.046Z,45.17
2018-10-05T10:30:42.806Z,42.29
2018-10-05T10:33:10.529Z,42.17
2018-10-05T10:35:38.258Z,40.54
2018-10-05T10:38:06.061Z,41.27
2018-10-05T10:40:33.757Z,41.94
2018-10-05T10:43:01.534Z,41.67
2018-10-05T10:45:29.274Z,42.16
2018-10-05T10:47:57.010Z,41.28
2018-10-05T10:50:24.733Z,41.31
2018-10-05T10:52:52.543Z,40.02
2018-10-05T10:55:20.287Z,40.01
2018-10-05T10:57:47.997Z,40.21
2018-10-05T11:00:15.762Z,41.13
2018-10-05T11:02:43.522Z,40.84
2018-10-05T11:05:11.239Z,39.67
2018-10-05T11:07:39.206Z,41.02
2018-10-05T11:10:07.114Z,40.86
2018-10-05T11:12:34.942Z,40.35
2018-10-05T11:15:02.749Z,40.97
2018-10-05T11:17:30.658Z,40.69
2018-10-05T11:19:58.581Z,40.64
2018-10-05T11:22:26.360Z,41.47
2018-10-05T11:24:54.076Z,42.70
2018-10-05T11:27:21.791Z,40.43
2018-10-05T11:29:49.585Z,41.38
2018-10-05T11:32:17.322Z,41.58
2018-10-05T11:34:45.045Z,45.22
2018-10-05T11:37:12.783Z,43.80
2018-10-05T11:39:40.499Z,40.40
2018-10-05T11:42:08.206Z,41.15
2018-10-05T11:44:35.909Z,42.32
2018-10-05T11:47:03.684Z,43.05
2018-10-05T11:49:31.430Z,42.45
2018-10-05T11:51:59.294Z,41.44
2018-10-05T11:54:27.095Z,41.49
2018-10-05T11:56:54.946Z,40.70
2018-10-05T11:59:22.719Z,40.82
2018-10-05T12:01:50.597Z,40.22
2018-10-05T12:04:18.964Z,42.69
2018-10-05T12:06:46.778Z,42.28
2018-10-05T12:09:15.435Z,41.55
2018-10-05T12:11:43.249Z,43.86
2018-10-05T12:14:10.965Z,40.55
2018-10-05T12:16:39.650Z,45.08
2018-10-05T12:19:07.377Z,41.84
2018-10-05T12:21:35.095Z,41.82
2018-10-05T12:24:03.642Z,43.18
2018-10-05T12:26:33.189Z,42.77
2018-10-05T12:29:00.918Z,41.83
2018-10-05T12:31:30.802Z,42.98
2018-10-05T12:33:58.644Z,44.42
2018-10-05T12:36:26.358Z,43.71
2018-10-05T12:38:54.079Z,44.45
2018-10-05T12:41:21.808Z,42.76
2018-10-05T12:43:50.534Z,42.12
2018-10-05T12:46:18.286Z,45.63
2018-10-05T12:48:46.041Z,44.08
2018-10-05T12:51:13.774Z,43.97
2018-10-05T12:53:42.078Z,46.05
2018-10-05T12:56:10.438Z,44.66
2018-10-05T12:58:38.193Z,42.34
2018-10-05T13:01:06.655Z,43.10
2018-10-05T13:03:35.298Z,42.17
2018-10-05T13:06:03.055Z,39.64
2018-10-05T13:08:30.762Z,45.79
2018-10-05T13:10:59.290Z,43.39
2018-10-05T13:13:27.638Z,41.48
2018-10-05T13:15:55.939Z,41.22
2018-10-05T13:18:24.595Z,47.82
2018-10-05T13:20:52.353Z,42.10
2018-10-05T13:23:20.061Z,42.07
2018-10-05T13:25:47.822Z,43.21
2018-10-05T13:28:15.530Z,43.50
2018-10-05T13:30:43.277Z,48.02
2018-10-05T13:33:11.014Z,42.49
2018-10-05T13:35:38.735Z,46.28
2018-10-05T13:38:07.299Z,44.68
2018-10-05T13:40:35.038Z,44.17
2018-10-05T13:43:02.754Z,46.18
2018-10-05T13:45:30.503Z,48.91
2018-10-05T13:47:58.239Z,50.96
2018-10-05T13:50:25.979Z,50.38
2018-10-05T13:52:53.757Z,44.67
2018-10-05T13:55:21.478Z,50.01
2018-10-05T13:57:49.263Z,49.08
2018-10-05T14:00:17.537Z,44.75
2018-10-05T14:02:45.304Z,45.33
2018-10-05T14:05:13.630Z,43.01
2018-10-05T14:07:41.351Z,50.76
2018-10-05T14:10:09.094Z,48.10
2018-10-05T14:12:36.825Z,44.52
2018-10-05T14:15:04.665Z,43.42
2018-10-05T14:17:32.951Z,51.38
2018-10-05T14:20:00.687Z,50.35
2018-10-05T14:22:28.418Z,50.46
2018-10-05T14:24:57.067Z,45.51
2018-10-05T14:27:24.827Z,49.40
2018-10-05T14:29:52.556Z,47.65
2018-10-05T14:32:20.417Z,49.77
2018-10-05T14:34:48.824Z,48.14
2018-10-05T14:37:16.543Z,49.37
2018-10-05T14:39:44.255Z,50.59
2018-10-05T14:42:11.991Z,45.92
2018-10-05T14:44:39.818Z,49.47
2018-10-05T14:47:07.528Z,51.49
2018-10-05T14:49:35.396Z,52.07
2018-10-05T14:52:03.126Z,51.14
2018-10-05T14:54:30.951Z,49.33
2018-10-05T14:56:58.701Z,52.77
2018-10-05T14:59:26.385Z,47.23
2018-10-05T15:01:54.119Z,50.89
2018-10-05T15:04:21.863Z,51.05
2018-10-05T15:06:49.658Z,50.53
2018-10-05T15:09:17.379Z,48.62
2018-10-05T15:11:45.078Z,48.99
2018-10-05T15:14:12.778Z,50.15
2018-10-05T15:16:40.510Z,51.92
2018-10-05T15:19:08.210Z,49.08
2018-10-05T15:21:35.948Z,50.24
2018-10-05T15:24:03.683Z,51.09
2018-10-05T15:26:31.386Z,52.78
2018-10-05T15:28:59.094Z,51.28
2018-10-05T15:31:26.842Z,52.98
2018-10-05T15:33:54.538Z,53.04
2018-10-05T15:36:22.271Z,53.87
2018-10-05T15:38:50.021Z,55.52
2018-10-05T15:41:17.698Z,54.75
2018-10-05T15:43:45.406Z,55.64
2018-10-05T15:46:23.010Z,55.77
2018-10-05T15:48:50.746Z,54.22
2018-10-05T15:51:18.472Z,54.72
2018-10-05T15:53:46.176Z,55.74
2018-10-05T15:56:13.888Z,54.89
2018-10-05T15:58:41.591Z,55.81
2018-10-05T16:01:09.341Z,57.01
2018-10-05T16:03:37.054Z,56.38
2018-10-05T16:06:04.801Z,58.69
2018-10-05T16:08:32.489Z,57.92
2018-10-05T16:11:00.309Z,56.92
2018-10-05T16:13:28.006Z,57.89
2018-10-05T16:15:55.725Z,59.96
2018-10-05T16:18:23.525Z,60.87
2018-10-05T16:20:51.194Z,59.75
2018-10-05T16:23:18.890Z,60.82
2018-10-05T16:25:46.610Z,62.16
2018-10-05T16:28:14.343Z,61.48
2018-10-05T16:30:42.070Z,62.22
2018-10-05T16:33:09.762Z,62.88
2018-10-05T16:35:37.461Z,62.81
2018-10-05T16:38:05.324Z,63.23
2018-10-05T16:40:33.025Z,63.09
2018-10-05T16:43:00.755Z,63.45
2018-10-05T16:45:28.446Z,63.39
2018-10-05T16:47:56.170Z,63.82
2018-10-05T16:50:24.506Z,63.45
2018-10-05T16:52:52.734Z,63.99
2018-10-05T16:55:20.434Z,63.47
2018-10-05T16:57:48.149Z,64.66
2018-10-05T17:00:15.864Z,64.40
2018-10-05T17:02:43.570Z,64.09
2018-10-05T17:05:11.302Z,65.41
2018-10-05T17:07:39.011Z,64.83
2018-10-05T17:10:06.912Z,66.24
2018-10-05T17:12:34.622Z,66.10
2018-10-05T17:15:02.347Z,66.86
2018-10-05T17:17:30.057Z,65.87
2018-10-05T17:19:57.762Z,65.33
2018-10-05T17:22:25.481Z,64.59
2018-10-05T17:24:53.245Z,65.77
2018-10-05T17:27:21.003Z,64.69
2018-10-05T17:29:48.701Z,63.32
2018-10-05T17:32:16.417Z,63.82
2018-10-05T17:34:44.136Z,64.02
2018-10-05T17:37:12.922Z,63.42
2018-10-05T17:39:40.551Z,64.07
2018-10-05T17:42:08.268Z,64.72
2018-10-05T17:44:35.967Z,65.18
2018-10-05T17:47:03.677Z,65.69
2018-10-05T17:49:33.332Z,66.71
2018-10-05T17:52:01.113Z,67.22
2018-10-05T17:54:30.473Z,67.54
2018-10-05T17:56:59.864Z,67.57
2018-10-05T17:59:27.590Z,67.29
2018-10-05T18:01:55.390Z,68.60
2018-10-05T18:04:23.118Z,69.20
2018-10-05T18:06:50.862Z,68.78
2018-10-05T18:09:18.605Z,69.24
2018-10-05T18:11:46.304Z,67.83
2018-10-05T18:14:14.125Z,67.05
2018-10-05T18:16:41.831Z,66.08
2018-10-05T18:19:09.538Z,67.82
2018-10-05T18:21:37.282Z,68.58
2018-10-05T18:24:04.995Z,68.95
2018-10-05T18:26:32.715Z,66.92
2018-10-05T18:29:00.537Z,66.25
2018-10-05T18:31:28.270Z,66.86
2018-10-05T18:33:56.016Z,68.23
2018-10-05T18:36:23.757Z,69.55
2018-10-05T18:38:51.465Z,68.46
2018-10-05T18:41:19.216Z,67.44
2018-10-05T18:43:46.973Z,68.96
2018-10-05T18:46:14.722Z,68.95
2018-10-05T18:48:42.491Z,70.14
2018-10-05T18:51:10.290Z,70.53
2018-10-05T18:53:37.998Z,70.17
2018-10-05T18:56:16.946Z,70.76
2018-10-05T18:58:44.666Z,70.91
2018-10-05T19:01:12.399Z,69.59
2018-10-05T19:03:40.105Z,69.88
2018-10-05T19:06:07.829Z,71.38
2018-10-05T19:08:36.190Z,71.20
2018-10-05T19:11:03.920Z,71.80
2018-10-05T19:13:31.666Z,72.08
2018-10-05T19:15:59.404Z,71.75
2018-10-05T19:18:27.861Z,69.19
2018-10-05T19:20:55.659Z,69.65
2018-10-05T19:23:23.484Z,70.60
2018-10-05T19:25:51.298Z,71.39
2018-10-05T19:28:18.986Z,70.83
2018-10-05T19:30:46.700Z,70.43
2018-10-05T19:33:14.515Z,71.22
2018-10-05T19:35:42.227Z,71.18
2018-10-05T19:38:09.943Z,70.73
2018-10-05T19:40:37.642Z,70.79
2018-10-05T19:43:05.383Z,72.17
2018-10-05T19:45:33.098Z,72.10
2018-10-05T19:48:00.809Z,71.63
2018-10-05T19:50:28.543Z,71.24
2018-10-05T19:52:56.315Z,72.42
2018-10-05T19:55:24.003Z,71.79
2018-10-05T19:57:51.718Z,71.25
2018-10-05T20:00:19.442Z,71.20
2018-10-05T20:02:47.142Z,70.57
2018-10-05T20:05:14.855Z,71.71
2018-10-05T20:07:42.570Z,71.72
2018-10-05T20:10:10.344Z,71.59
2018-10-05T20:12:38.042Z,71.51
2018-10-05T20:15:05.953Z,71.15
2018-10-05T20:17:33.747Z,70.69
2018-10-05T20:20:01.456Z,70.70
2018-10-05T20:22:29.162Z,70.83
2018-10-05T20:24:56.865Z,71.69
2018-10-05T20:27:24.573Z,71.76
2018-10-05T20:29:52.278Z,71.85
2018-10-05T20:32:19.997Z,73.19
2018-10-05T20:34:47.698Z,71.64
2018-10-05T20:37:20.130Z,73.17
2018-10-05T20:39:48.732Z,72.05
2018-10-05T20:42:16.459Z,71.62
2018-10-05T20:44:44.192Z,71.21
2018-10-05T20:47:11.922Z,71.96
2018-10-05T20:49:39.742Z,71.76
2018-10-05T20:52:07.455Z,72.45
2018-10-05T20:54:35.165Z,73.33
2018-10-05T20:57:02.866Z,73.60
2018-10-05T20:59:30.566Z,74.72
2018-10-05T21:01:58.274Z,75.01
2018-10-05T21:04:26.090Z,74.72
2018-10-05T21:06:53.939Z,75.37
2018-10-05T21:09:21.658Z,73.83
2018-10-05T21:11:49.425Z,73.97
2018-10-05T21:14:17.157Z,75.47
2018-10-05T21:16:44.925Z,75.63
2018-10-05T21:19:12.659Z,76.70
2018-10-05T21:21:40.362Z,77.10
2018-10-05T21:24:08.105Z,76.65
2018-10-05T21:26:35.825Z,76.73
2018-10-05T21:29:03.711Z,75.34
2018-10-05T21:31:31.486Z,75.74
2018-10-05T21:33:59.185Z,75.54
2018-10-05T21:36:26.902Z,76.88
2018-10-05T21:38:54.708Z,76.59
2018-10-05T21:41:22.426Z,75.71
2018-10-05T21:43:50.149Z,75.33
2018-10-05T21:46:17.938Z,74.54
2018-10-05T21:48:45.694Z,74.57
2018-10-05T21:51:13.528Z,75.38
2018-10-05T21:53:41.306Z,75.83
2018-10-05T21:56:09.031Z,76.42
2018-10-05T21:58:36.793Z,76.87
2018-10-05T22:01:04.551Z,75.36
2018-10-05T22:03:32.406Z,76.16
2018-10-05T22:06:00.204Z,76.79
2018-10-05T22:08:28.009Z,76.86
2018-10-05T22:10:55.764Z,77.24
2018-10-05T22:13:23.479Z,77.11
2018-10-05T22:15:51.191Z,76.20
2018-10-05T22:18:18.903Z,76.07
2018-10-05T22:20:46.640Z,74.21
2018-10-05T22:23:14.344Z,74.30
2018-10-05T22:25:42.046Z,74.38
2018-10-05T22:28:09.742Z,75.78
2018-10-05T22:30:37.598Z,76.85
2018-10-05T22:33:05.463Z,77.29
2018-10-05T22:35:34.064Z,77.19
2018-10-05T22:38:01.922Z,77.12
2018-10-05T22:40:30.161Z,78.09
2018-10-05T22:42:58.027Z,77.62
2018-10-05T22:45:25.878Z,78.05
2018-10-05T22:47:53.743Z,77.64
2018-10-05T22:50:21.665Z,78.78
2018-10-05T22:52:49.510Z,78.55
2018-10-05T22:55:17.378Z,78.90
2018-10-05T22:57:45.238Z,79.08
2018-10-05T23:00:13.132Z,78.55
2018-10-05T23:02:41.009Z,78.70
2018-10-05T23:05:08.895Z,79.81
2018-10-05T23:07:36.767Z,79.24
2018-10-05T23:10:05.002Z,79.62
2018-10-05T23:12:32.878Z,79.03
2018-10-05T23:15:02.247Z,80.08
2018-10-05T23:17:30.131Z,80.55
2018-10-05T23:19:58.000Z,79.55
2018-10-05T23:22:25.959Z,79.28
2018-10-05T23:24:53.818Z,79.40
2018-10-05T23:27:21.683Z,79.30
2018-10-05T23:29:49.579Z,80.21
2018-10-05T23:32:17.471Z,79.19
2018-10-05T23:34:45.350Z,79.16
2018-10-05T23:37:13.223Z,79.07
2018-10-05T23:39:42.087Z,78.82
2018-10-05T23:42:10.044Z,78.39
2018-10-05T23:44:37.906Z,77.98
2018-10-05T23:47:06.027Z,79.25
2018-10-05T23:49:33.962Z,80.32
2018-10-05T23:52:12.838Z,79.12
2018-10-05T23:54:40.689Z,77.36
2018-10-05T23:57:08.542Z,80.00
2018-10-05T23:59:36.402Z,79.99
